< < Back
Terminal Aerodrome Forecast


Current Version              Previous Versions:   1  2  3  4  5  6  7  8  9  

Terminal Aerodrome Forecast

349
FTUS42 KMLB 251500 AAA
TAFMCO
TAF AMD
KMCO 251502Z 2515/2612 34010KT P6SM FEW050
     FM260000 01006KT P6SM SKC=



Latest METAR

804
SAUS70 KWBC 260500 RRC
MTRMCO
METAR KMCO 260453Z 35004KT 10SM CLR 18/15 A3000 RMK AO2 SLP156 T01780150
402720172 $


USA.gov is the U.S. government's official web portal to all federal, state and local government web resources and services.